Webkamera Lisätietoa Webcam


Yksityisiä sääasemia lähellä:

Sääasema Orivesi

Sääasema Muurame

Sääasema Jyväskylä

Sääasema Vihtavuori


Löydät sääaseman tiedot myös:

Finland Weather Exchange

European Weather Network

Weather Underground

AWEKAS

Windy.com

HAMweather, WeatherForYou, PWS Weather



Säätiedot lähimmiltä METAR asemilta

   
EFHA - Halli (Fin-Afb), Finland
Etäisyys asemalta: Kaakko 25 km
Päivitetty: 23.06.2024 14:20
Selkeää  
Selkeää  
   Tuuli: Koillinen 2.6 m/s
Tuuli: Koillinen 2.6 m/s
Lämpötila: 22°C
Kastepiste: 6°C
Kosteus: 36%
Ilmanpaine: 1011 hPa
Näkyvyys: Enemmän kuin 10 km
Pilvitiedot: Selkeää
EFHA 231120Z AUTO 05005KT 360V110 CAVOK 22/06 Q1011
EFTP - Tampere/Pirkkala, Finland
Etäisyys asemalta: Lounas 81 km
Päivitetty: 23.06.2024 14:20
Selkeää  
Selkeää  
   Tuuli: Itäkoillinen 3.1 m/s
Tuuli: Itäkoillinen 3.1 m/s
Lämpötila: 22°C
Kastepiste: 7°C
Kosteus: 38%
Ilmanpaine: 1010 hPa
Näkyvyys: Enemmän kuin 10 km
Pilvitiedot: Selkeää
EFTP 231120Z AUTO 06006KT CAVOK 22/07 Q1010
EFMI - Mikkeli, Finland
Etäisyys asemalta: Itäkaakko 147 km
Päivitetty: 23.06.2024 14:20
Selkeää  
Selkeää  
   Tuuli: Itäkaakko 2.6 m/s
Tuuli: Itäkaakko 2.6 m/s
Lämpötila: 22°C
Kastepiste: 9°C
Kosteus: 44%
Ilmanpaine: 1011 hPa
Näkyvyys: Enemmän kuin 10 km
Pilvitiedot: Selkeää
EFMI 231120Z AUTO 11005KT 350V160 CAVOK 22/09 Q1011
EFPO - Pori (Mil/Civ), Finland
Etäisyys asemalta: Länsilounas 154 km
Päivitetty: 23.06.2024 14:20
Selkeää  
Selkeää  
   Tuuli: Länsiluode 4.6 m/s
Tuuli: Länsiluode 4.6 m/s
Lämpötila: 21°C
Kastepiste: 10°C
Kosteus: 50%
Ilmanpaine: 1010 hPa
Näkyvyys: Enemmän kuin 10 km
Pilvitiedot: Selkeää
EFPO 231120Z AUTO 30009KT 270V330 CAVOK 21/10 Q1010
EFUT - Utti (Fin-Afb), Finland
Etäisyys asemalta: Kaakko 180 km
Päivitetty: 23.06.2024 14:20
Selkeää  
Selkeää  
   Tuuli: Pohjoiskoillinen 4.1 m/s
Tuuli: Pohjoiskoillinen 4.1 m/s
Lämpötila: 23°C
Kastepiste: 6°C
Kosteus: 33%
Ilmanpaine: 1010 hPa
Näkyvyys: Enemmän kuin 10 km
Pilvitiedot: Selkeää
EFUT 231120Z AUTO 02008KT 330V100 CAVOK 23/06 Q1010
EFVA - Vaasa, Finland
Etäisyys asemalta: Luode 180 km
Päivitetty: 23.06.2024 14:20
Selkeää  
Selkeää  
   Tuuli: Vaihtelee 1 m/s
Tuuli: Vaihtelee 1 m/s
Lämpötila: 20°C
Kastepiste: 12°C
Kosteus: 60%
Ilmanpaine: 1010 hPa
Näkyvyys: Enemmän kuin 10 km
Pilvitiedot: Selkeää
EFVA 231120Z AUTO VRB02KT CAVOK 20/12 Q1010
EFHK - Helsinki/Vantaa, Finland
Etäisyys asemalta: Etelä 191 km
Päivitetty: 23.06.2024 14:20
Selkeää  
Selkeää  
   Tuuli: Itäkaakko 6.2 m/s
Tuuli: Itäkaakko 6.2 m/s
Lämpötila: 22°C
Kastepiste: 8°C
Kosteus: 41%
Ilmanpaine: 1010 hPa
Näkyvyys: Enemmän kuin 10 km
Pilvitiedot: Selkeää
EFHK 231120Z 12012KT 090V150 CAVOK 22/08 Q1010 NOSIG
  

Alkuperäinen skripti  Saratoga-weather.org Sovitettu myös templatelle  Weerstation Leuven

Laitteet joita käytämme:

Sääasema
Davis VP2

Sääasemaohjelma
Cumulus

Sääaseman palvelin
HP ProBook 6460b

Palveluntarjoaja
Radicenter

Davis VP2

Cumulus

HP ProBook 6460b

Radicenter




Flag Counter Cumulus Top Sites